Time;durP1;ratioP1;P1;durP2;ratioP2;P2;SDS_P1;SDS_P2;PMS_P1;PMS_P2;Temp;Humidity;BMP_temperature;BMP_pressure;BME280_temperature;BME280_humidity;BME280_pressure;Samples;Min_cycle;Max_cycle;Signal;HPM_P1;HPM_P2
2021/11/26 00:02:23;;;;;;;55.72;32.42;;;2.00;99.90;;;;;;5051122;28;20040;-79
2021/11/26 00:04:49;;;;;;;58.97;31.83;;;2.00;99.90;;;;;;5051891;28;20021;-77
2021/11/26 00:07:17;;;;;;;55.45;30.33;;;2.00;99.90;;;;;;5047856;28;20025;-78
2021/11/26 00:09:43;;;;;;;56.60;31.85;;;2.00;99.90;;;;;;5044691;28;20071;-79
2021/11/26 00:12:08;;;;;;;65.38;34.17;;;2.00;99.90;;;;;;5044333;28;20029;-79
2021/11/26 00:14:41;;;;;;;63.05;33.25;;;1.90;99.90;;;;;;5045265;28;20025;-79
2021/11/26 00:17:14;;;;;;;52.88;30.90;;;1.90;99.90;;;;;;5045809;28;20036;-79
2021/11/26 00:19:41;;;;;;;53.85;31.02;;;1.90;99.90;;;;;;5048131;28;20029;-77
2021/11/26 00:22:07;;;;;;;54.15;33.28;;;1.90;99.90;;;;;;5048415;28;20104;-78
2021/11/26 00:24:32;;;;;;;60.78;32.72;;;1.90;99.90;;;;;;5052659;28;20032;-79
2021/11/26 00:26:58;;;;;;;59.33;34.00;;;1.90;99.90;;;;;;5050683;28;20053;-79
2021/11/26 00:29:24;;;;;;;55.28;32.58;;;1.90;99.90;;;;;;5045718;28;20089;-77
2021/11/26 00:31:49;;;;;;;57.88;33.55;;;1.90;99.90;;;;;;5050039;28;20040;-78
2021/11/26 00:34:15;;;;;;;64.47;35.42;;;1.90;99.90;;;;;;5049632;28;20029;-77
2021/11/26 00:36:41;;;;;;;60.25;32.47;;;1.90;99.90;;;;;;5045751;28;20096;-78
2021/11/26 00:39:07;;;;;;;57.75;31.35;;;1.80;99.90;;;;;;5043155;28;20021;-77
2021/11/26 00:41:33;;;;;;;56.88;33.58;;;1.80;99.90;;;;;;5046812;28;20097;-79
2021/11/26 00:43:58;;;;;;;58.53;31.60;;;1.90;99.90;;;;;;5045508;28;20029;-78
2021/11/26 00:46:24;;;;;;;58.72;33.53;;;1.80;99.90;;;;;;5045427;28;20034;-78
2021/11/26 00:48:49;;;;;;;58.55;33.22;;;1.90;99.90;;;;;;5056961;28;20017;-79
2021/11/26 00:51:15;;;;;;;56.40;31.58;;;1.90;99.90;;;;;;5058432;28;20073;-79
2021/11/26 00:53:41;;;;;;;54.08;29.92;;;1.90;99.90;;;;;;5058113;28;20028;-78
2021/11/26 00:56:07;;;;;;;57.92;31.35;;;1.90;99.90;;;;;;5060065;28;20025;-78
2021/11/26 00:58:33;;;;;;;49.53;29.95;;;1.90;99.90;;;;;;5059984;28;20029;-78
2021/11/26 01:00:58;;;;;;;60.85;32.22;;;1.90;99.90;;;;;;5059653;28;20037;-79
2021/11/26 01:03:25;;;;;;;57.85;33.90;;;1.80;99.90;;;;;;5058798;28;20437;-79
2021/11/26 01:05:51;;;;;;;59.85;34.70;;;1.80;99.90;;;;;;5045500;28;20022;-79
2021/11/26 01:08:17;;;;;;;57.25;32.53;;;1.80;99.90;;;;;;5045621;28;20024;-78
2021/11/26 01:10:44;;;;;;;56.58;30.85;;;1.80;99.90;;;;;;5054235;28;20077;-80
2021/11/26 01:13:09;;;;;;;58.55;33.00;;;1.80;99.90;;;;;;5056651;28;20042;-80
2021/11/26 01:15:36;;;;;;;60.10;33.03;;;1.80;99.90;;;;;;5059305;28;20070;-80
2021/11/26 01:18:03;;;;;;;60.25;34.95;;;1.80;99.90;;;;;;5059251;28;20029;-79
2021/11/26 01:20:32;;;;;;;54.33;31.83;;;1.90;99.90;;;;;;5059165;28;20040;-79
2021/11/26 01:22:59;;;;;;;56.55;33.15;;;1.90;99.90;;;;;;5058138;28;20022;-78
2021/11/26 01:25:25;;;;;;;55.92;32.05;;;1.90;99.90;;;;;;5059147;28;20085;-79
2021/11/26 01:27:51;;;;;;;57.15;31.33;;;1.90;99.90;;;;;;5056812;28;20045;-78
2021/11/26 01:30:29;;;;;;;58.53;32.30;;;1.90;99.90;;;;;;5054238;28;20073;-78
2021/11/26 01:32:57;;;;;;;54.08;30.58;;;1.90;99.90;;;;;;5052955;28;20033;-80
2021/11/26 01:35:23;;;;;;;59.80;32.63;;;1.80;99.90;;;;;;5048712;28;20120;-78
2021/11/26 01:37:49;;;;;;;58.05;33.28;;;1.90;99.90;;;;;;5044565;28;20018;-80
2021/11/26 01:40:16;;;;;;;52.83;30.42;;;1.90;99.90;;;;;;5043119;28;20116;-79
2021/11/26 01:42:42;;;;;;;56.95;32.95;;;1.90;99.90;;;;;;5040565;28;20521;-78
2021/11/26 01:45:09;;;;;;;58.70;34.67;;;1.90;99.90;;;;;;5040549;28;20025;-79
2021/11/26 01:47:34;;;;;;;53.50;31.52;;;1.90;99.90;;;;;;5037803;28;20032;-78
2021/11/26 01:50:01;;;;;;;56.80;32.58;;;1.80;99.90;;;;;;5040897;28;20029;-80
2021/11/26 01:52:27;;;;;;;61.03;32.15;;;1.80;99.90;;;;;;5041011;28;20404;-79
2021/11/26 01:54:52;;;;;;;54.97;31.40;;;1.80;99.90;;;;;;5058853;28;20077;-78
2021/11/26 01:57:19;;;;;;;55.30;30.15;;;1.80;99.90;;;;;;5052654;28;20104;-78
2021/11/26 01:59:48;;;;;;;53.65;31.27;;;1.80;99.90;;;;;;5042746;28;20475;-79
2021/11/26 02:02:13;;;;;;;58.13;33.03;;;1.80;99.90;;;;;;5040447;28;20025;-79
2021/11/26 02:04:39;;;;;;;59.38;33.45;;;1.80;99.90;;;;;;5039816;28;20031;-79
2021/11/26 02:07:05;;;;;;;57.67;33.97;;;1.80;99.90;;;;;;5039452;28;20029;-78
2021/11/26 02:09:30;;;;;;;57.13;30.73;;;1.80;99.90;;;;;;5039610;28;20112;-80
2021/11/26 02:11:56;;;;;;;59.67;34.15;;;1.90;99.90;;;;;;5039654;28;20076;-78
2021/11/26 02:14:22;;;;;;;61.80;33.08;;;1.90;99.90;;;;;;5038635;28;20028;-80
2021/11/26 02:16:49;;;;;;;56.05;31.92;;;2.00;99.90;;;;;;5040327;28;20374;-79
2021/11/26 02:19:19;;;;;;;58.63;31.75;;;1.90;99.90;;;;;;5039024;28;20117;-79
2021/11/26 02:21:45;;;;;;;56.13;31.58;;;1.90;99.90;;;;;;5047657;28;20033;-79
2021/11/26 02:24:11;;;;;;;50.33;28.63;;;1.80;99.90;;;;;;5037928;28;20079;-78
2021/11/26 02:26:40;;;;;;;57.05;33.47;;;1.80;99.90;;;;;;5041033;28;20401;-79
2021/11/26 02:29:06;;;;;;;58.78;31.60;;;1.90;99.90;;;;;;5041654;28;20033;-79
2021/11/26 02:31:32;;;;;;;56.30;30.70;;;1.90;99.90;;;;;;5041200;28;20073;-79
2021/11/26 02:33:58;;;;;;;54.40;31.20;;;2.00;99.90;;;;;;5043335;28;20036;-79
2021/11/26 02:36:24;;;;;;;54.70;32.25;;;2.00;99.90;;;;;;5040064;28;20108;-79
2021/11/26 02:38:49;;;;;;;52.45;29.70;;;2.00;99.90;;;;;;5039847;28;20091;-79
2021/11/26 02:41:15;;;;;;;54.53;32.17;;;1.90;99.90;;;;;;5042500;28;20026;-79
2021/11/26 02:43:41;;;;;;;55.30;30.77;;;1.90;99.90;;;;;;5057933;28;20017;-79
2021/11/26 02:46:07;;;;;;;51.13;31.58;;;1.90;99.90;;;;;;5050098;28;20500;-78
2021/11/26 02:48:32;;;;;;;51.83;29.80;;;2.00;99.90;;;;;;5042978;28;20029;-78
2021/11/26 02:50:58;;;;;;;48.80;29.85;;;2.20;99.90;;;;;;5039913;28;20021;-78
2021/11/26 02:53:24;;;;;;;51.03;30.88;;;2.30;99.90;;;;;;5039903;28;20022;-79
2021/11/26 02:55:50;;;;;;;50.20;29.73;;;2.50;99.90;;;;;;5042216;28;20048;-79
2021/11/26 02:58:15;;;;;;;54.08;30.52;;;2.30;99.90;;;;;;5049148;28;20018;-79
2021/11/26 03:00:45;;;;;;;52.17;30.73;;;2.20;99.90;;;;;;5045344;28;20048;-79
2021/11/26 03:03:11;;;;;;;54.25;32.63;;;2.00;99.90;;;;;;5044251;28;20068;-79
2021/11/26 03:05:36;;;;;;;58.53;34.00;;;2.10;99.90;;;;;;5043791;28;20025;-78
2021/11/26 03:08:03;;;;;;;56.10;32.13;;;2.00;99.90;;;;;;5042136;28;20025;-78
2021/11/26 03:10:29;;;;;;;52.15;29.38;;;2.00;99.90;;;;;;5040613;28;20108;-79
2021/11/26 03:12:59;;;;;;;54.03;30.95;;;2.00;99.90;;;;;;5045157;28;20208;-79
2021/11/26 03:15:25;;;;;;;56.50;31.67;;;1.90;99.90;;;;;;5047509;28;20214;-79
2021/11/26 03:17:52;;;;;;;53.65;30.75;;;1.90;99.90;;;;;;5036486;28;20037;-78
2021/11/26 03:20:18;;;;;;;51.60;30.98;;;1.90;99.90;;;;;;5038268;28;20540;-78
2021/11/26 03:22:44;;;;;;;55.65;31.73;;;1.90;99.90;;;;;;5039390;28;20029;-80
2021/11/26 03:25:10;;;;;;;47.78;28.80;;;1.90;99.90;;;;;;5041731;28;20037;-79
2021/11/26 03:27:37;;;;;;;54.75;31.45;;;1.90;99.90;;;;;;5051165;28;20027;-78
2021/11/26 03:30:05;;;;;;;53.72;31.38;;;1.90;99.90;;;;;;5055339;28;20013;-78
2021/11/26 03:32:30;;;;;;;55.58;32.58;;;1.90;99.90;;;;;;5056969;28;20014;-78
2021/11/26 03:34:56;;;;;;;58.70;31.60;;;1.90;99.90;;;;;;5055827;28;20059;-77
2021/11/26 03:37:22;;;;;;;55.88;31.10;;;1.90;99.90;;;;;;5046750;28;20384;-79
2021/11/26 03:39:48;;;;;;;50.90;30.38;;;1.80;99.90;;;;;;5043346;28;20501;-80
2021/11/26 03:42:13;;;;;;;54.40;29.65;;;1.80;99.90;;;;;;5045943;28;20056;-78
2021/11/26 03:44:39;;;;;;;50.88;29.40;;;1.90;99.90;;;;;;5049176;28;20040;-78
2021/11/26 03:47:04;;;;;;;56.45;32.85;;;1.90;99.90;;;;;;5047896;28;20029;-80
2021/11/26 03:49:30;;;;;;;51.90;31.50;;;1.90;99.90;;;;;;5045282;28;20025;-79
2021/11/26 03:51:55;;;;;;;55.67;31.88;;;1.90;99.90;;;;;;5045766;28;20017;-79
2021/11/26 03:54:21;;;;;;;53.58;32.22;;;2.00;99.90;;;;;;5045943;28;20075;-79
2021/11/26 03:56:47;;;;;;;52.78;31.48;;;2.00;99.90;;;;;;5042856;28;20108;-78
2021/11/26 03:59:12;;;;;;;57.28;31.80;;;1.90;99.90;;;;;;5046335;28;20029;-79
2021/11/26 04:01:38;;;;;;;53.78;29.95;;;1.90;99.90;;;;;;5048143;28;20030;-78
2021/11/26 04:04:04;;;;;;;56.70;30.50;;;1.90;99.90;;;;;;5047901;28;20040;-78
2021/11/26 04:06:29;;;;;;;55.38;33.05;;;1.90;99.90;;;;;;5048173;28;20100;-79
2021/11/26 04:08:55;;;;;;;58.85;30.90;;;1.80;99.90;;;;;;5047069;28;20033;-79
2021/11/26 04:11:21;;;;;;;54.38;30.73;;;1.90;99.90;;;;;;5044563;28;20028;-80
2021/11/26 04:13:46;;;;;;;52.70;31.13;;;1.90;99.90;;;;;;5042240;28;20018;-80
2021/11/26 04:16:13;;;;;;;57.17;32.45;;;1.80;99.90;;;;;;5042738;28;20025;-79
2021/11/26 04:18:41;;;;;;;56.47;32.00;;;1.80;99.90;;;;;;5060520;22;20099;-73
2021/11/26 04:21:06;;;;;;;57.15;33.67;;;1.70;99.90;;;;;;5034932;28;20025;-72
2021/11/26 04:23:32;;;;;;;53.20;29.63;;;1.70;99.90;;;;;;5041822;28;20026;-72
2021/11/26 04:25:58;;;;;;;62.85;35.20;;;1.70;99.90;;;;;;5054854;28;20029;-73
2021/11/26 04:28:24;;;;;;;57.08;31.80;;;1.70;99.90;;;;;;5053703;28;20029;-72
2021/11/26 04:30:50;;;;;;;62.78;34.65;;;1.70;99.90;;;;;;5037641;28;20032;-72
2021/11/26 04:33:15;;;;;;;68.93;34.90;;;1.80;99.90;;;;;;5039224;28;20064;-72
2021/11/26 04:35:44;;;;;;;64.43;34.60;;;1.80;99.90;;;;;;5039501;28;20461;-72
2021/11/26 04:38:10;;;;;;;56.63;32.17;;;1.80;99.90;;;;;;5038846;28;20021;-72
2021/11/26 04:40:35;;;;;;;57.13;32.22;;;1.70;99.90;;;;;;5034631;28;20378;-72
2021/11/26 04:43:01;;;;;;;58.90;33.90;;;1.80;99.90;;;;;;5039057;28;20025;-73
2021/11/26 04:45:27;;;;;;;60.90;33.85;;;1.90;99.90;;;;;;5043343;28;20095;-72
2021/11/26 04:47:52;;;;;;;60.40;33.95;;;1.90;99.90;;;;;;5035248;28;20116;-72
2021/11/26 04:50:18;;;;;;;65.47;35.22;;;2.00;99.90;;;;;;5035126;28;20033;-72
2021/11/26 04:52:44;;;;;;;64.05;33.05;;;2.00;99.90;;;;;;5035111;28;20108;-72
2021/11/26 04:55:11;;;;;;;63.15;36.17;;;1.90;99.90;;;;;;5035372;28;20098;-73
2021/11/26 04:57:36;;;;;;;65.22;33.30;;;1.90;99.90;;;;;;5050563;28;20049;-73
2021/11/26 05:00:04;;;;;;;59.47;32.97;;;2.00;99.90;;;;;;5057905;28;20029;-73
2021/11/26 05:02:30;;;;;;;67.97;35.65;;;1.90;99.90;;;;;;5050449;28;20105;-74
2021/11/26 05:04:55;;;;;;;60.55;33.17;;;2.00;99.90;;;;;;5037409;28;20414;-74
2021/11/26 05:07:23;;;;;;;62.78;34.15;;;2.10;99.90;;;;;;5036293;28;20032;-73
2021/11/26 05:09:48;;;;;;;62.08;33.80;;;2.00;99.90;;;;;;5036058;28;20052;-73
2021/11/26 05:12:14;;;;;;;65.80;35.38;;;2.10;99.90;;;;;;5038333;28;20017;-72
2021/11/26 05:14:40;;;;;;;56.90;30.98;;;2.10;99.90;;;;;;5038078;28;20025;-74
2021/11/26 05:17:05;;;;;;;58.15;32.15;;;2.20;99.90;;;;;;5036893;28;20044;-73
2021/11/26 05:19:31;;;;;;;52.20;30.02;;;2.40;99.90;;;;;;5037124;28;20048;-72
2021/11/26 05:21:56;;;;;;;54.58;29.67;;;2.30;99.90;;;;;;5036274;28;20029;-73
2021/11/26 05:24:22;;;;;;;55.63;30.70;;;2.20;99.90;;;;;;5037769;28;20029;-73
2021/11/26 05:26:48;;;;;;;55.97;29.75;;;2.20;99.90;;;;;;5037544;28;20048;-73
2021/11/26 05:29:14;;;;;;;57.47;31.88;;;2.10;99.90;;;;;;5036889;28;20072;-72
2021/11/26 05:31:40;;;;;;;62.10;34.17;;;2.10;99.90;;;;;;5038385;28;20426;-72
2021/11/26 05:34:07;;;;;;;56.92;32.78;;;2.10;99.90;;;;;;5035681;28;20031;-73
2021/11/26 05:36:34;;;;;;;59.47;32.47;;;2.20;99.90;;;;;;5039743;28;20036;-73
2021/11/26 05:38:59;;;;;;;56.10;32.38;;;2.50;99.90;;;;;;5036659;28;20033;-73
2021/11/26 05:41:25;;;;;;;62.85;33.15;;;2.60;99.90;;;;;;5034650;28;20381;-73
2021/11/26 05:43:51;;;;;;;60.00;33.40;;;2.50;99.90;;;;;;5034137;28;20374;-72
2021/11/26 05:46:16;;;;;;;65.82;35.05;;;2.50;99.90;;;;;;5032377;28;20044;-73
2021/11/26 05:48:42;;;;;;;62.00;33.90;;;2.40;99.90;;;;;;5033777;28;20108;-73
2021/11/26 05:51:08;;;;;;;60.45;33.90;;;2.30;99.90;;;;;;5032893;28;20034;-72
2021/11/26 05:53:33;;;;;;;55.20;32.70;;;2.40;99.90;;;;;;5033982;28;20104;-73
2021/11/26 05:56:00;;;;;;;63.20;34.10;;;2.30;99.90;;;;;;5034748;28;20486;-72
2021/11/26 05:58:27;;;;;;;59.65;34.40;;;2.30;99.90;;;;;;5033762;28;20524;-73
2021/11/26 06:00:53;;;;;;;58.85;32.38;;;2.20;99.90;;;;;;5033850;28;20032;-73
2021/11/26 06:03:18;;;;;;;63.78;33.30;;;2.20;99.90;;;;;;5033870;28;20025;-73
2021/11/26 06:05:44;;;;;;;62.03;33.80;;;2.20;99.90;;;;;;5034295;28;20030;-74
2021/11/26 06:08:09;;;;;;;60.33;33.22;;;2.40;99.90;;;;;;5034494;28;20033;-73
2021/11/26 06:10:35;;;;;;;60.63;33.70;;;2.40;99.90;;;;;;5037030;28;20033;-73
2021/11/26 06:13:01;;;;;;;61.80;33.63;;;2.30;99.90;;;;;;5037275;28;20381;-72
2021/11/26 06:15:26;;;;;;;55.05;30.77;;;2.30;99.90;;;;;;5038532;28;20025;-74
2021/11/26 06:17:52;;;;;;;65.53;34.28;;;2.20;99.90;;;;;;5034701;28;20052;-73
2021/11/26 06:20:19;;;;;;;64.68;36.33;;;2.20;99.90;;;;;;5035722;28;20029;-72
2021/11/26 06:22:46;;;;;;;60.45;32.58;;;2.20;99.90;;;;;;5050188;28;20091;-72
2021/11/26 06:25:14;;;;;;;61.05;33.25;;;2.30;99.90;;;;;;5034119;28;20025;-73
2021/11/26 06:27:41;;;;;;;48.35;29.92;;;2.40;99.90;;;;;;5034399;28;20071;-73
2021/11/26 06:30:07;;;;;;;53.10;31.42;;;2.30;99.90;;;;;;5037098;28;20229;-74
2021/11/26 06:32:33;;;;;;;60.28;33.05;;;2.20;99.90;;;;;;5033358;28;20026;-73
2021/11/26 06:34:59;;;;;;;57.97;32.17;;;2.30;99.90;;;;;;5032940;28;20025;-74
2021/11/26 06:37:24;;;;;;;63.22;33.92;;;2.30;99.90;;;;;;5033750;28;20053;-73
2021/11/26 06:39:50;;;;;;;55.97;31.70;;;2.30;99.90;;;;;;5033449;28;20049;-73
2021/11/26 06:42:15;;;;;;;62.75;33.92;;;2.30;99.90;;;;;;5033262;28;20036;-74
2021/11/26 06:44:41;;;;;;;59.55;32.55;;;2.40;99.90;;;;;;5033678;28;20365;-73
2021/11/26 06:47:07;;;;;;;56.00;32.95;;;2.40;99.90;;;;;;5034339;28;20109;-74
2021/11/26 06:49:32;;;;;;;59.03;33.35;;;2.40;99.90;;;;;;5034865;28;20028;-74
2021/11/26 06:51:58;;;;;;;57.67;32.67;;;2.30;99.90;;;;;;5016179;28;20036;-74
2021/11/26 06:54:24;;;;;;;52.65;28.98;;;2.30;99.90;;;;;;5033977;28;20487;-73
2021/11/26 06:56:49;;;;;;;56.85;30.08;;;2.40;99.90;;;;;;5032283;28;20017;-74
2021/11/26 06:59:15;;;;;;;56.75;32.42;;;2.40;99.90;;;;;;5033643;28;20029;-73
2021/11/26 07:01:41;;;;;;;53.42;30.08;;;2.70;99.90;;;;;;5036645;28;20546;-72
2021/11/26 07:04:09;;;;;;;60.58;32.08;;;2.60;99.90;;;;;;5034890;28;20049;-74
2021/11/26 07:06:35;;;;;;;55.25;29.73;;;2.60;99.90;;;;;;5034777;28;20400;-72
2021/11/26 07:09:02;;;;;;;51.75;28.77;;;2.60;99.90;;;;;;5034626;28;20033;-72
2021/11/26 07:11:27;;;;;;;53.33;28.05;;;2.60;99.90;;;;;;5032812;28;20040;-73
2021/11/26 07:13:53;;;;;;;46.90;27.73;;;2.60;99.90;;;;;;5036446;28;20029;-74
2021/11/26 07:16:19;;;;;;;46.55;27.88;;;2.60;99.90;;;;;;5041425;28;20021;-72
2021/11/26 07:18:45;;;;;;;44.78;26.92;;;2.50;99.90;;;;;;5035232;28;20596;-73
2021/11/26 07:21:10;;;;;;;47.60;25.92;;;2.50;99.90;;;;;;5034451;28;20037;-72
2021/11/26 07:23:36;;;;;;;41.22;25.70;;;2.60;99.90;;;;;;5034751;28;20026;-73
2021/11/26 07:26:02;;;;;;;43.95;27.02;;;2.60;99.90;;;;;;5034982;28;20436;-73
2021/11/26 07:28:27;;;;;;;46.58;26.58;;;2.60;99.90;;;;;;5034832;28;20578;-72
2021/11/26 07:30:53;;;;;;;48.13;28.10;;;2.70;99.90;;;;;;5033862;28;20508;-72
2021/11/26 07:33:19;;;;;;;44.35;26.83;;;2.70;99.90;;;;;;5016184;28;20022;-73
2021/11/26 07:35:44;;;;;;;49.40;27.85;;;2.70;99.90;;;;;;5033972;28;20079;-73
2021/11/26 07:38:10;;;;;;;45.88;27.70;;;2.70;99.90;;;;;;5034059;28;20036;-73
2021/11/26 07:40:35;;;;;;;46.35;26.08;;;2.70;99.90;;;;;;5034204;28;20034;-73
2021/11/26 07:43:01;;;;;;;41.88;25.13;;;2.70;99.90;;;;;;5035495;28;20026;-72
2021/11/26 07:45:27;;;;;;;47.35;26.55;;;2.70;99.90;;;;;;5036046;28;20095;-72
2021/11/26 07:47:52;;;;;;;50.80;25.40;;;2.70;99.90;;;;;;5034130;28;20033;-72
2021/11/26 07:50:19;;;;;;;52.00;28.77;;;2.70;99.90;;;;;;5035074;28;20033;-74
2021/11/26 07:52:44;;;;;;;50.78;28.38;;;2.80;99.90;;;;;;5037192;28;20485;-73
2021/11/26 07:55:12;;;;;;;47.15;27.15;;;2.80;99.90;;;;;;5034744;28;20036;-73
2021/11/26 07:57:39;;;;;;;55.20;29.83;;;2.80;99.90;;;;;;5034060;28;20087;-73
2021/11/26 08:00:07;;;;;;;55.20;30.05;;;2.90;99.90;;;;;;5039674;28;20053;-73
2021/11/26 08:02:32;;;;;;;44.33;27.25;;;3.00;99.90;;;;;;5036856;28;20026;-74
2021/11/26 08:04:58;;;;;;;45.85;25.92;;;3.00;99.90;;;;;;5035493;28;20494;-73
2021/11/26 08:07:24;;;;;;;43.40;26.05;;;3.00;99.90;;;;;;5034495;28;20551;-74
2021/11/26 08:09:49;;;;;;;50.35;27.13;;;3.00;99.90;;;;;;5034022;28;20456;-74
2021/11/26 08:12:15;;;;;;;47.28;27.58;;;2.90;99.90;;;;;;5034095;28;20017;-73
2021/11/26 08:14:40;;;;;;;48.22;27.75;;;2.90;99.90;;;;;;5043625;28;20025;-72
2021/11/26 08:17:06;;;;;;;47.53;25.92;;;2.90;99.90;;;;;;5055340;28;20040;-72
2021/11/26 08:19:31;;;;;;;44.47;28.52;;;2.90;99.90;;;;;;5041603;28;20493;-74
2021/11/26 08:21:57;;;;;;;45.55;26.27;;;2.90;99.90;;;;;;5051545;28;20029;-72
2021/11/26 08:24:24;;;;;;;49.25;27.05;;;2.90;99.90;;;;;;5053080;28;20034;-72
2021/11/26 08:26:50;;;;;;;43.22;24.75;;;3.00;99.90;;;;;;5054195;28;20022;-72
2021/11/26 08:29:16;;;;;;;43.10;25.02;;;3.00;99.90;;;;;;5051444;28;20052;-73
2021/11/26 08:31:42;;;;;;;42.65;26.10;;;3.00;99.90;;;;;;5043111;28;20024;-74
2021/11/26 08:34:08;;;;;;;46.78;26.95;;;3.10;99.90;;;;;;5039060;28;20099;-73
2021/11/26 08:36:35;;;;;;;46.53;27.48;;;3.10;99.90;;;;;;5038772;28;20400;-73
2021/11/26 08:39:02;;;;;;;45.78;25.38;;;3.10;99.90;;;;;;5039550;28;20075;-73
2021/11/26 08:41:28;;;;;;;40.88;24.27;;;3.10;99.90;;;;;;5037841;28;20049;-73
2021/11/26 08:43:54;;;;;;;45.80;27.10;;;3.20;99.90;;;;;;5037983;28;20021;-73
2021/11/26 08:46:20;;;;;;;42.40;24.95;;;3.20;99.90;;;;;;5038374;28;20079;-73
2021/11/26 08:48:46;;;;;;;44.95;26.80;;;3.30;99.90;;;;;;5036540;28;20071;-72
2021/11/26 08:51:12;;;;;;;59.92;29.30;;;3.40;99.90;;;;;;5037811;28;20370;-73
2021/11/26 08:53:43;;;;;;;42.75;25.83;;;3.40;99.90;;;;;;5038202;28;20033;-73
2021/11/26 08:56:09;;;;;;;48.25;26.83;;;3.30;99.90;;;;;;5037082;28;20393;-73
2021/11/26 08:58:36;;;;;;;45.92;26.75;;;3.30;99.90;;;;;;5036385;28;20028;-73
2021/11/26 09:01:02;;;;;;;47.35;26.55;;;3.40;99.90;;;;;;5039027;28;20025;-74
2021/11/26 09:03:28;;;;;;;42.30;25.30;;;3.40;99.90;;;;;;5035605;28;20493;-73
2021/11/26 09:05:53;;;;;;;43.08;25.92;;;3.50;99.90;;;;;;5038605;28;20117;-73
2021/11/26 09:08:19;;;;;;;44.95;27.95;;;3.40;99.90;;;;;;5039210;28;20494;-73
2021/11/26 09:10:47;;;;;;;49.20;28.00;;;3.40;99.90;;;;;;5037447;28;20025;-73
2021/11/26 09:13:14;;;;;;;46.00;27.13;;;3.40;99.90;;;;;;5036962;28;20026;-74
2021/11/26 09:15:40;;;;;;;48.03;29.15;;;3.40;99.90;;;;;;5036509;28;20026;-73
2021/11/26 09:18:12;;;;;;;47.60;28.25;;;3.40;99.90;;;;;;5036195;28;20048;-73
2021/11/26 09:20:38;;;;;;;45.55;26.90;;;3.30;99.90;;;;;;5036693;28;20030;-73
2021/11/26 09:23:05;;;;;;;48.33;27.35;;;3.30;99.90;;;;;;5038114;28;20059;-74
2021/11/26 09:25:32;;;;;;;45.10;27.42;;;3.40;99.90;;;;;;5024205;28;20025;-72
2021/11/26 09:27:58;;;;;;;48.13;28.20;;;3.60;99.90;;;;;;5044312;28;20064;-74
2021/11/26 09:30:26;;;;;;;48.05;28.23;;;3.70;99.90;;;;;;5035626;28;20242;-73
2021/11/26 09:32:52;;;;;;;43.80;26.05;;;3.60;99.90;;;;;;5036554;28;20370;-74
2021/11/26 09:35:17;;;;;;;46.53;27.38;;;3.60;99.90;;;;;;5034348;28;20024;-74
2021/11/26 09:37:43;;;;;;;48.50;27.85;;;3.60;99.90;;;;;;5034734;28;20037;-74
2021/11/26 09:40:10;;;;;;;46.83;27.08;;;3.60;99.90;;;;;;5048934;28;20093;-74
2021/11/26 09:42:38;;;;;;;47.90;28.30;;;3.70;99.90;;;;;;5039591;28;20029;-73
2021/11/26 09:45:05;;;;;;;48.30;26.70;;;3.50;99.90;;;;;;5035467;28;20562;-74
2021/11/26 09:47:31;;;;;;;47.80;26.85;;;3.60;99.90;;;;;;5033527;28;20035;-73
2021/11/26 09:49:59;;;;;;;45.63;26.60;;;3.70;99.90;;;;;;5035032;28;20456;-73
2021/11/26 09:52:25;;;;;;;47.17;27.10;;;3.80;99.90;;;;;;5035063;28;20465;-73
2021/11/26 09:54:50;;;;;;;46.85;26.83;;;4.10;99.90;;;;;;5040538;28;20030;-73
2021/11/26 09:57:16;;;;;;;49.40;28.30;;;4.00;99.90;;;;;;5043191;28;20031;-73
2021/11/26 09:59:45;;;;;;;45.85;26.92;;;3.80;99.90;;;;;;5037488;28;20060;-73
2021/11/26 10:02:21;;;;;;;49.42;28.55;;;3.80;99.90;;;;;;5035351;28;20112;-72
2021/11/26 10:05:06;;;;;;;48.28;27.60;;;3.70;99.90;;;;;;5036128;28;20025;-72
2021/11/26 10:07:42;;;;;;;50.55;28.48;;;3.70;99.90;;;;;;5036954;28;20504;-72
2021/11/26 10:10:10;;;;;;;48.22;26.92;;;3.70;99.90;;;;;;5039096;28;20025;-73
2021/11/26 10:12:36;;;;;;;43.92;26.98;;;3.70;99.90;;;;;;5038269;28;20025;-73
2021/11/26 10:15:02;;;;;;;47.47;28.48;;;3.70;99.90;;;;;;5038283;28;20033;-73
2021/11/26 10:17:28;;;;;;;50.80;29.98;;;3.70;99.90;;;;;;5038030;28;20026;-73
2021/11/26 10:20:07;;;;;;;50.17;27.60;;;3.70;99.90;;;;;;5074673;22;20033;-79
2021/11/26 10:22:41;;;;;;;49.97;29.48;;;3.70;99.90;;;;;;5057649;28;20017;-79
2021/11/26 10:25:16;;;;;;;47.90;26.77;;;3.80;99.90;;;;;;5055220;28;20055;-78
2021/11/26 10:27:51;;;;;;;48.95;27.33;;;3.70;99.90;;;;;;5053556;28;20026;-79
2021/11/26 10:30:30;;;;;;;50.03;28.17;;;3.70;99.90;;;;;;5033083;28;20081;-78
2021/11/26 10:33:04;;;;;;;47.63;27.83;;;3.70;99.90;;;;;;5032970;28;20068;-79
2021/11/26 10:35:43;;;;;;;48.15;27.95;;;3.70;99.90;;;;;;5035258;28;20160;-79
2021/11/26 10:38:18;;;;;;;49.15;27.58;;;3.70;99.90;;;;;;5036524;28;20038;-78
2021/11/26 10:40:53;;;;;;;48.85;28.45;;;3.80;99.90;;;;;;5037089;28;20082;-79
2021/11/26 10:43:36;;;;;;;51.35;28.83;;;3.90;99.90;;;;;;5035316;28;20561;-79
2021/11/26 10:46:26;;;;;;;44.30;26.08;;;4.00;99.90;;;;;;5031797;28;20429;-79
2021/11/26 10:52:11;;;;;;;51.10;28.13;;;4.10;99.90;;;;;;5032404;28;20060;-79
2021/11/26 11:00:09;;;;;;;47.60;26.88;;;4.10;99.90;;;;;;5028712;28;20030;-79
2021/11/26 11:02:39;;;;;;;46.75;25.63;;;4.20;99.90;;;;;;5023976;28;20030;-81
2021/11/26 11:05:07;;;;;;;54.53;29.45;;;4.10;99.90;;;;;;5022497;28;20030;-80
2021/11/26 11:07:45;;;;;;;48.08;26.98;;;4.20;99.90;;;;;;5020689;28;20048;-80
2021/11/26 11:10:23;;;;;;;46.03;27.20;;;4.20;99.90;;;;;;5019840;28;20057;-81
2021/11/26 11:12:49;;;;;;;48.38;27.48;;;4.10;99.90;;;;;;5019537;28;20506;-80
2021/11/26 11:15:15;;;;;;;55.13;28.30;;;4.20;99.90;;;;;;5021138;28;20069;-80
2021/11/26 11:17:40;;;;;;;50.17;29.35;;;4.10;99.90;;;;;;5022564;28;20488;-79
2021/11/26 11:20:11;;;;;;;48.70;27.52;;;4.30;99.90;;;;;;5026600;28;20030;-82
2021/11/26 11:22:38;;;;;;;46.10;27.30;;;4.30;99.90;;;;;;5025016;28;20032;-79
2021/11/26 11:25:07;;;;;;;48.13;25.98;;;4.20;99.90;;;;;;5029555;28;20060;-80
2021/11/26 11:27:33;;;;;;;48.85;28.00;;;4.10;99.90;;;;;;5017270;28;20010;-79
2021/11/26 11:30:00;;;;;;;54.70;28.98;;;4.00;99.90;;;;;;5024262;28;20030;-80
2021/11/26 11:32:26;;;;;;;50.80;28.30;;;4.00;99.90;;;;;;5018112;28;20026;-79
2021/11/26 11:34:54;;;;;;;48.35;27.92;;;4.00;99.90;;;;;;5018451;28;20026;-80
2021/11/26 11:37:23;;;;;;;50.58;29.50;;;4.10;99.90;;;;;;5017232;28;20108;-80
2021/11/26 11:39:51;;;;;;;50.92;28.30;;;4.10;99.90;;;;;;5017742;28;20072;-80
2021/11/26 11:42:28;;;;;;;51.42;29.05;;;4.10;99.90;;;;;;5018445;28;20559;-79
2021/11/26 11:44:57;;;;;;;49.10;28.77;;;4.10;99.90;;;;;;5017182;28;20030;-79
2021/11/26 11:47:24;;;;;;;48.05;28.23;;;4.10;99.90;;;;;;5020527;28;20026;-79
2021/11/26 11:50:01;;;;;;;47.42;30.65;;;4.10;99.90;;;;;;5023280;28;20030;-80
2021/11/26 11:52:43;;;;;;;48.17;27.15;;;4.10;99.90;;;;;;5025360;28;20529;-80
2021/11/26 11:55:37;;;;;;;47.35;27.30;;;4.10;99.90;;;;;;5026741;28;20486;-80
2021/11/26 11:58:26;;;;;;;45.90;27.10;;;4.10;99.90;;;;;;5025248;28;20121;-80
2021/11/26 12:00:54;;;;;;;43.78;26.02;;;4.20;99.90;;;;;;5025741;28;20386;-80
2021/11/26 12:03:28;;;;;;;42.05;24.95;;;4.20;99.90;;;;;;5028610;28;20041;-80
2021/11/26 12:06:00;;;;;;;42.97;24.13;;;4.30;99.90;;;;;;5029357;28;20480;-80
2021/11/26 12:08:26;;;;;;;40.80;25.27;;;4.40;99.90;;;;;;5030515;28;20022;-80
2021/11/26 12:10:55;;;;;;;41.75;24.10;;;4.30;99.90;;;;;;5032886;28;20022;-79
2021/11/26 12:13:27;;;;;;;39.88;22.70;;;4.30;99.90;;;;;;5033394;28;20037;-80
2021/11/26 12:16:05;;;;;;;46.35;24.52;;;4.30;99.90;;;;;;5033153;28;20033;-81
2021/11/26 12:18:38;;;;;;;41.65;23.83;;;4.30;99.90;;;;;;5033426;28;20042;-79
2021/11/26 12:21:04;;;;;;;43.03;24.60;;;4.40;99.90;;;;;;5032009;28;20045;-79
2021/11/26 12:23:36;;;;;;;45.42;24.08;;;4.40;99.90;;;;;;5044363;28;20033;-79
2021/11/26 12:26:14;;;;;;;39.97;22.40;;;4.30;99.90;;;;;;5031469;28;20018;-81
2021/11/26 12:28:49;;;;;;;40.17;23.85;;;4.40;99.90;;;;;;5029390;28;20052;-79
2021/11/26 12:31:15;;;;;;;40.53;22.35;;;4.40;99.90;;;;;;5027287;28;20033;-80
2021/11/26 12:33:41;;;;;;;41.13;24.23;;;4.40;99.90;;;;;;5031243;28;20057;-79
2021/11/26 12:36:13;;;;;;;42.00;23.63;;;4.50;99.90;;;;;;5033886;28;20424;-79
2021/11/26 12:38:42;;;;;;;45.67;24.58;;;4.50;99.90;;;;;;5033485;28;20452;-79
2021/11/26 12:41:10;;;;;;;37.67;22.45;;;4.40;99.90;;;;;;5033675;28;20037;-80
2021/11/26 12:43:48;;;;;;;40.55;21.65;;;4.40;99.90;;;;;;5031450;28;20026;-80
2021/11/26 12:46:36;;;;;;;37.40;22.77;;;4.50;99.90;;;;;;5029273;28;20026;-80